Terminal Aerodrome Forecast
Issued by NWS

Home | Current Version | Previous Version | Text Only | Print | Product List | Glossary Off
Versions: 1 2 3 4 5 6 7 8 9 10 11 12 13 14 15 16 17 18 19 20 21 22 23 24 25

777
FTUS43 KABR 142004 AAA
TAFMBG
TAF AMD
KMBG 142004Z 1420/1518 34014KT P6SM FEW040 OVC060
     FM142100 33019G27KT P6SM BKN035
     FM150000 31011KT P6SM BKN035
     FM150300 30009KT P6SM OVC035
     FM151200 23006KT P6SM BKN080=

USA.gov is the U.S. government's official web portal to all federal, state and local government web resources and services.